Time;durP1;ratioP1;P1;durP2;ratioP2;P2;SDS_P1;SDS_P2;PMS_P1;PMS_P2;Temp;Humidity;BMP_temperature;BMP_pressure;BME280_temperature;BME280_humidity;BME280_pressure;Samples;Min_cycle;Max_cycle;Signal;HPM_P1;HPM_P2
2021/06/07 00:02:02;;;;;;;11.13;7.28;;;;;;;14.51;56.39;99047.47;5095628;28;20065;-76
2021/06/07 00:04:29;;;;;;;11.40;6.75;;;;;;;14.44;57.21;99042.84;5113586;28;20046;-76
2021/06/07 00:06:55;;;;;;;15.32;7.03;;;;;;;14.40;57.25;99044.16;5045390;28;20043;-76
2021/06/07 00:09:21;;;;;;;16.40;7.85;;;;;;;14.45;57.29;99047.25;5095921;28;20053;-76
2021/06/07 00:11:52;;;;;;;14.60;10.82;;;;;;;14.45;57.22;99052.63;5113583;28;20035;-77
2021/06/07 00:14:19;;;;;;;18.35;10.07;;;;;;;14.44;57.47;99056.28;5078168;28;20482;-77
2021/06/07 00:16:45;;;;;;;19.75;11.60;;;;;;;14.43;57.28;99049.22;5078475;28;20035;-76
2021/06/07 00:19:14;;;;;;;19.40;11.15;;;;;;;14.43;56.98;99046.53;5095181;28;20051;-76
2021/06/07 00:21:40;;;;;;;14.52;10.45;;;;;;;14.48;57.41;99057.66;5095659;28;20589;-77
2021/06/07 00:24:06;;;;;;;13.27;9.38;;;;;;;14.54;57.29;99052.56;5095444;28;20051;-77
2021/06/07 00:26:32;;;;;;;19.23;10.52;;;;;;;14.61;56.99;99058.16;5095496;28;20044;-77
2021/06/07 00:28:58;;;;;;;16.50;11.13;;;;;;;14.64;57.00;99068.63;5095125;28;20046;-75
2021/06/07 00:31:24;;;;;;;16.88;9.77;;;;;;;14.70;57.01;99062.59;5095209;28;20045;-77
2021/06/07 00:33:50;;;;;;;21.20;9.52;;;;;;;14.75;56.86;99056.78;5095173;28;20052;-77
2021/06/07 00:36:21;;;;;;;12.75;8.30;;;;;;;14.78;57.17;99057.31;5095359;28;20043;-78
2021/06/07 00:38:50;;;;;;;17.20;7.75;;;;;;;14.70;56.87;99056.38;5113537;28;20051;-77
2021/06/07 00:41:16;;;;;;;12.13;5.50;;;;;;;14.70;57.37;99061.75;5095588;28;20406;-77
2021/06/07 00:43:42;;;;;;;7.80;4.45;;;;;;;14.58;57.08;99050.41;5094985;28;20055;-77
2021/06/07 00:46:08;;;;;;;14.43;4.10;;;;;;;14.59;56.80;99057.47;5112889;28;20131;-77
2021/06/07 00:48:34;;;;;;;5.50;3.03;;;;;;;14.50;57.29;99066.47;5113012;28;20130;-76
2021/06/07 00:51:05;;;;;;;6.97;3.13;;;;;;;14.45;57.16;99055.31;5095083;28;20123;-78
2021/06/07 00:53:31;;;;;;;6.75;3.15;;;;;;;14.39;57.36;99056.75;5061260;28;20051;-77
2021/06/07 00:55:58;;;;;;;10.10;3.58;;;;;;;14.42;57.37;99061.00;5112921;28;20055;-78
2021/06/07 00:58:35;;;;;;;7.72;3.40;;;;;;;14.42;57.17;99051.06;5113164;28;20047;-77
2021/06/07 01:01:01;;;;;;;8.07;4.30;;;;;;;14.49;57.36;99048.63;5095292;28;20498;-77
2021/06/07 01:03:27;;;;;;;6.03;4.47;;;;;;;14.60;56.55;99056.47;5095107;28;20508;-77
2021/06/07 01:05:54;;;;;;;9.70;4.97;;;;;;;14.66;56.74;99055.00;5078126;28;20048;-77
2021/06/07 01:08:20;;;;;;;6.07;4.95;;;;;;;14.79;56.28;99050.91;5112978;28;20513;-77
2021/06/07 01:10:46;;;;;;;9.85;5.85;;;;;;;14.95;55.80;99049.34;5095520;28;20036;-77
2021/06/07 01:13:13;;;;;;;9.75;6.90;;;;;;;15.04;55.72;99051.94;5112897;28;20046;-77
2021/06/07 01:15:40;;;;;;;12.32;6.88;;;;;;;15.07;55.49;99050.75;5112281;28;20050;-76
2021/06/07 01:18:06;;;;;;;14.32;10.65;;;;;;;15.05;55.95;99055.47;5078130;28;20051;-77
2021/06/07 01:20:32;;;;;;;19.02;11.48;;;;;;;14.88;56.04;99048.28;5111828;28;20479;-77
2021/06/07 01:22:58;;;;;;;19.00;12.30;;;;;;;15.04;55.95;99045.69;5061159;28;20514;-77
2021/06/07 01:25:33;;;;;;;21.98;12.60;;;;;;;14.91;56.44;99039.91;5114816;28;20048;-77
2021/06/07 01:27:59;;;;;;;24.40;12.73;;;;;;;14.90;56.41;99046.28;5081686;28;20456;-77
2021/06/07 01:30:27;;;;;;;20.08;12.80;;;;;;;14.81;56.77;99048.91;5081507;28;20050;-77
2021/06/07 01:32:53;;;;;;;26.42;13.13;;;;;;;14.77;57.07;99042.13;5081230;28;20492;-77
2021/06/07 01:35:19;;;;;;;25.80;13.55;;;;;;;14.86;57.04;99044.91;5081331;28;20043;-79
2021/06/07 01:37:46;;;;;;;26.20;13.07;;;;;;;15.06;56.52;99047.22;5080918;28;20048;-77
2021/06/07 01:40:15;;;;;;;33.33;15.15;;;;;;;15.17;56.09;99043.44;5064493;28;20135;-77
2021/06/07 01:42:41;;;;;;;28.75;15.20;;;;;;;15.33;56.21;99057.97;5098280;28;20456;-76
2021/06/07 01:45:08;;;;;;;32.70;16.10;;;;;;;15.24;56.38;99055.25;5098003;28;20079;-78
2021/06/07 01:47:34;;;;;;;38.67;16.38;;;;;;;15.33;56.17;99061.50;5081433;28;20111;-78
2021/06/07 01:50:00;;;;;;;33.47;17.20;;;;;;;15.44;56.26;99055.00;5097926;28;20109;-77
2021/06/07 01:52:26;;;;;;;29.98;18.17;;;;;;;15.41;55.91;99049.94;5115997;28;20055;-77
2021/06/07 01:54:52;;;;;;;35.83;18.13;;;;;;;15.47;56.29;99050.16;5098481;28;20058;-78
2021/06/07 01:57:19;;;;;;;48.55;21.15;;;;;;;15.55;56.31;99055.56;5081628;28;20066;-77
2021/06/07 01:59:45;;;;;;;37.55;21.77;;;;;;;15.72;56.12;99053.84;5081173;28;20074;-76
2021/06/07 02:02:11;;;;;;;33.45;17.65;;;;;;;15.78;55.96;99053.16;5097936;28;20059;-77
2021/06/07 02:04:37;;;;;;;37.13;17.02;;;;;;;15.73;55.77;99044.72;5097684;28;20039;-81
2021/06/07 02:07:03;;;;;;;27.23;15.73;;;;;;;15.79;55.90;99048.63;5047916;28;20482;-77
2021/06/07 02:09:29;;;;;;;38.03;18.48;;;;;;;15.62;56.22;99049.53;5080626;28;20078;-79
2021/06/07 02:11:55;;;;;;;30.00;16.88;;;;;;;15.59;56.60;99061.47;5116185;28;20079;-78
2021/06/07 02:14:21;;;;;;;31.15;17.65;;;;;;;15.61;56.58;99040.63;5097585;28;20055;-78
2021/06/07 02:16:47;;;;;;;29.67;15.85;;;;;;;15.71;56.37;99052.13;5097494;28;20051;-80
2021/06/07 02:19:13;;;;;;;32.03;12.85;;;;;;;15.77;56.38;99056.88;5080388;28;20119;-78
2021/06/07 02:21:39;;;;;;;26.10;11.63;;;;;;;15.77;56.44;99046.09;5114207;28;20116;-74
2021/06/07 02:24:09;;;;;;;20.42;9.60;;;;;;;15.85;56.86;99052.53;5080102;28;20093;-78
2021/06/07 02:26:34;;;;;;;22.90;9.70;;;;;;;15.88;56.78;99060.28;5097349;28;20043;-77
2021/06/07 02:29:08;;;;;;;23.13;9.60;;;;;;;15.84;57.20;99053.53;5097122;28;20073;-76
2021/06/07 02:31:34;;;;;;;22.65;10.48;;;;;;;15.99;56.99;99059.97;5098224;28;20096;-76
2021/06/07 02:34:02;;;;;;;19.90;10.10;;;;;;;16.03;56.79;99050.56;5063352;28;20347;-76
2021/06/07 02:36:29;;;;;;;18.33;11.02;;;;;;;16.10;56.70;99054.28;5079474;28;20039;-80
2021/06/07 02:38:55;;;;;;;17.20;11.00;;;;;;;16.19;56.50;99052.44;5080090;28;20126;-75
2021/06/07 02:41:21;;;;;;;26.77;12.15;;;;;;;16.39;56.36;99056.50;5099882;27;20047;-75
2021/06/07 02:43:48;;;;;;;23.65;11.82;;;;;;;16.54;55.97;99062.06;5080099;28;20134;-75
2021/06/07 02:46:14;;;;;;;28.35;12.55;;;;;;;16.68;55.70;99061.41;5063293;28;20122;-75
2021/06/07 02:48:40;;;;;;;35.05;14.30;;;;;;;16.76;55.46;99057.91;5096781;28;20063;-74
2021/06/07 02:51:06;;;;;;;32.03;13.75;;;;;;;16.78;55.95;99065.84;5114885;28;20479;-74
2021/06/07 02:53:32;;;;;;;33.97;15.38;;;;;;;16.89;55.53;99062.81;5114916;28;20055;-75
2021/06/07 02:55:58;;;;;;;35.95;15.63;;;;;;;17.02;55.65;99063.13;5096401;28;20043;-75
2021/06/07 02:58:24;;;;;;;28.58;14.30;;;;;;;16.89;56.03;99057.41;5096415;28;20387;-78
2021/06/07 03:00:54;;;;;;;30.48;11.70;;;;;;;17.07;55.80;99062.59;5079868;28;20134;-77
2021/06/07 03:03:20;;;;;;;26.08;11.05;;;;;;;17.26;55.39;99058.69;5079956;28;20084;-74
2021/06/07 03:05:47;;;;;;;23.33;12.00;;;;;;;17.36;54.88;99053.94;5114511;28;20043;-81
2021/06/07 03:08:14;;;;;;;18.90;10.40;;;;;;;17.64;54.49;99063.31;5062659;28;20460;-76
2021/06/07 03:10:40;;;;;;;28.05;10.27;;;;;;;17.87;53.99;99059.88;5062780;28;20097;-75
2021/06/07 03:13:06;;;;;;;18.75;7.93;;;;;;;18.06;52.75;99059.41;5114214;28;20067;-74
2021/06/07 03:15:32;;;;;;;15.68;6.82;;;;;;;17.85;52.46;99053.78;5079076;28;20070;-77
2021/06/07 03:17:58;;;;;;;20.30;7.05;;;;;;;17.90;52.55;99057.66;5062373;28;20046;-76
2021/06/07 03:20:27;;;;;;;20.40;7.22;;;;;;;18.08;52.01;99060.06;5095434;28;20043;-75
2021/06/07 03:22:57;;;;;;;19.67;7.05;;;;;;;18.22;51.95;99057.63;5114068;28;20101;-74
2021/06/07 03:25:23;;;;;;;11.07;6.15;;;;;;;18.35;51.75;99060.56;5063056;28;20413;-74
2021/06/07 03:27:49;;;;;;;14.95;5.53;;;;;;;18.47;51.25;99067.28;5079181;28;20138;-74
2021/06/07 03:30:15;;;;;;;19.08;5.90;;;;;;;18.57;51.16;99065.16;5113968;28;20127;-74
2021/06/07 03:32:41;;;;;;;19.42;6.45;;;;;;;18.76;51.03;99061.16;5079131;28;20039;-80
2021/06/07 03:35:09;;;;;;;14.85;6.20;;;;;;;18.86;50.84;99061.75;5049870;27;20050;-74
2021/06/07 03:37:36;;;;;;;15.13;6.90;;;;;;;18.89;50.76;99057.84;5107302;27;20046;-75
2021/06/07 03:40:08;;;;;;;14.70;6.13;;;;;;;18.92;50.98;99062.91;5116691;27;20273;-74
2021/06/07 03:42:34;;;;;;;19.23;5.93;;;;;;;19.01;50.84;99061.78;5099946;27;20066;-77
2021/06/07 03:44:59;;;;;;;15.57;6.30;;;;;;;19.22;50.64;99060.22;5099716;27;20122;-75
2021/06/07 03:47:27;;;;;;;13.15;6.93;;;;;;;19.37;50.57;99063.81;5133407;27;20496;-75
2021/06/07 03:49:52;;;;;;;19.92;6.45;;;;;;;19.52;49.68;99061.06;5082580;27;20128;-75
2021/06/07 03:52:18;;;;;;;15.90;6.10;;;;;;;19.68;49.20;99057.38;5095180;28;20486;-78
2021/06/07 03:54:44;;;;;;;19.67;6.28;;;;;;;19.76;48.99;99062.69;5078864;28;20044;-77
2021/06/07 03:57:10;;;;;;;12.35;6.38;;;;;;;19.77;48.74;99061.66;5062204;28;20142;-78
2021/06/07 03:59:36;;;;;;;14.73;6.90;;;;;;;19.59;49.03;99048.44;5078794;28;20134;-75
2021/06/07 04:02:03;;;;;;;22.17;7.22;;;;;;;19.72;49.11;99051.38;5113535;28;20134;-77
2021/06/07 04:04:29;;;;;;;15.50;6.68;;;;;;;19.97;48.76;99038.34;5079295;28;20043;-75
2021/06/07 04:06:55;;;;;;;20.55;8.13;;;;;;;20.23;48.50;99040.50;5095358;28;20047;-80
2021/06/07 04:09:22;;;;;;;26.98;7.45;;;;;;;20.48;47.99;99040.97;5078730;28;20120;-77
2021/06/07 04:11:49;;;;;;;23.00;7.35;;;;;;;20.60;47.69;99047.59;5113404;28;20048;-74
2021/06/07 04:14:15;;;;;;;24.48;7.47;;;;;;;20.58;47.05;99046.97;5095300;28;20044;-75
2021/06/07 04:16:41;;;;;;;31.42;9.32;;;;;;;20.55;47.39;99044.63;5112090;28;20073;-77
2021/06/07 04:19:07;;;;;;;18.77;7.45;;;;;;;20.73;47.46;99046.88;5078577;28;20130;-75
2021/06/07 04:21:33;;;;;;;34.40;8.02;;;;;;;20.94;47.18;99045.16;5078092;28;20050;-76
2021/06/07 04:23:59;;;;;;;23.45;7.03;;;;;;;21.06;46.45;99041.75;5113196;28;20040;-75
2021/06/07 04:26:24;;;;;;;28.23;7.13;;;;;;;21.23;46.38;99036.81;5096762;28;20531;-77
2021/06/07 04:28:50;;;;;;;35.45;7.55;;;;;;;21.30;45.76;99036.88;5061576;28;20051;-75
2021/06/07 04:31:17;;;;;;;24.33;7.15;;;;;;;21.37;45.53;99036.97;5076699;28;20482;-78
2021/06/07 04:33:43;;;;;;;38.30;7.90;;;;;;;21.39;45.00;99038.41;5059375;28;20063;-77
2021/06/07 04:36:08;;;;;;;27.00;7.57;;;;;;;21.34;44.83;99032.75;5075759;28;20122;-78
2021/06/07 04:38:34;;;;;;;32.28;7.60;;;;;;;21.56;44.94;99036.22;5093063;28;20519;-77
2021/06/07 04:41:00;;;;;;;30.77;8.05;;;;;;;21.72;44.39;99027.72;5109844;28;20050;-76
2021/06/07 04:43:26;;;;;;;29.15;7.80;;;;;;;21.98;44.09;99035.16;5076392;28;20495;-75
2021/06/07 04:45:52;;;;;;;32.75;8.43;;;;;;;22.03;43.86;99026.38;5109575;28;20078;-76
2021/06/07 04:48:18;;;;;;;31.90;7.82;;;;;;;22.07;43.88;99033.09;5094931;28;20407;-76
2021/06/07 04:50:45;;;;;;;34.08;6.82;;;;;;;22.07;41.15;99022.19;5111763;28;20098;-74
2021/06/07 04:53:12;;;;;;;24.75;6.80;;;;;;;22.05;42.65;99022.41;5078343;28;20070;-75
2021/06/07 04:55:43;;;;;;;33.25;6.63;;;;;;;22.16;42.53;99025.63;5111891;28;20040;-75
2021/06/07 04:58:11;;;;;;;27.25;6.55;;;;;;;22.20;42.36;99021.44;5095119;28;20035;-75
2021/06/07 05:00:37;;;;;;;29.13;6.67;;;;;;;22.20;42.80;99026.88;5116767;28;20039;-75
2021/06/07 05:03:03;;;;;;;39.55;6.55;;;;;;;22.20;41.77;99032.34;5081706;28;20130;-76
2021/06/07 05:05:30;;;;;;;45.45;7.38;;;;;;;22.47;42.15;99034.06;5081646;28;20517;-76
2021/06/07 05:07:56;;;;;;;35.05;7.38;;;;;;;22.68;42.07;99029.47;5115467;28;20039;-75
2021/06/07 05:10:22;;;;;;;32.00;6.53;;;;;;;22.99;41.99;99028.88;5098364;28;20187;-74
2021/06/07 05:12:48;;;;;;;26.95;6.75;;;;;;;23.26;41.48;99026.97;5115598;28;20055;-75
2021/06/07 05:15:15;;;;;;;27.55;7.43;;;;;;;23.45;40.79;99025.25;5115512;28;20039;-74
2021/06/07 05:17:41;;;;;;;35.63;8.70;;;;;;;23.47;40.06;99032.19;5081838;28;20079;-75
2021/06/07 05:20:09;;;;;;;34.80;10.27;;;;;;;23.43;39.84;99028.19;5116775;28;20043;-76
2021/06/07 05:22:35;;;;;;;34.05;9.07;;;;;;;23.42;39.08;99023.78;5098661;28;20047;-75
2021/06/07 05:25:02;;;;;;;36.42;10.60;;;;;;;23.46;39.54;99033.22;5098215;28;20047;-76
2021/06/07 05:27:28;;;;;;;33.95;9.48;;;;;;;23.68;39.06;99024.78;5098371;28;20047;-76
2021/06/07 05:29:54;;;;;;;29.23;9.80;;;;;;;23.53;36.50;99033.19;5081968;28;20046;-77
2021/06/07 05:32:20;;;;;;;32.20;7.80;;;;;;;23.70;36.21;99033.63;5098030;28;20063;-75
2021/06/07 05:34:46;;;;;;;38.33;7.63;;;;;;;23.92;35.57;99026.81;5115940;28;20525;-77
2021/06/07 05:37:11;;;;;;;37.22;7.55;;;;;;;24.11;35.01;99029.63;5115792;28;20072;-75
2021/06/07 05:39:37;;;;;;;30.20;7.75;;;;;;;24.22;34.68;99031.66;5097584;28;20116;-75
2021/06/07 05:42:04;;;;;;;45.38;9.40;;;;;;;24.31;34.59;99035.84;5098023;28;20104;-75
2021/06/07 05:44:30;;;;;;;37.03;9.70;;;;;;;24.34;34.23;99029.13;5098132;28;20039;-76
2021/06/07 05:46:55;;;;;;;54.80;10.63;;;;;;;24.49;34.30;99029.66;5097987;28;20062;-74
2021/06/07 05:49:21;;;;;;;39.20;12.02;;;;;;;24.66;34.75;99027.22;5115106;28;20062;-76
2021/06/07 05:51:47;;;;;;;36.85;11.80;;;;;;;24.85;34.38;99025.41;5114389;28;20458;-76
2021/06/07 05:54:13;;;;;;;32.72;11.75;;;;;;;24.66;32.86;99028.06;5115152;28;20445;-76
2021/06/07 05:56:39;;;;;;;33.85;12.13;;;;;;;24.40;33.39;99023.63;5115674;28;20126;-75
2021/06/07 05:59:06;;;;;;;47.88;11.43;;;;;;;24.36;34.02;99025.09;5114672;28;20045;-76
2021/06/07 06:01:32;;;;;;;36.90;10.18;;;;;;;24.57;33.84;99029.41;5114905;28;20047;-76
2021/06/07 06:03:58;;;;;;;27.30;9.57;;;;;;;24.82;33.49;99013.00;5114755;28;20122;-76
2021/06/07 06:06:24;;;;;;;34.47;10.88;;;;;;;24.96;33.32;99011.00;5114321;28;20055;-75
2021/06/07 06:08:51;;;;;;;42.72;8.60;;;;;;;25.26;33.23;99016.63;5114476;28;20438;-75
2021/06/07 06:11:23;;;;;;;26.27;8.70;;;;;;;24.91;30.55;99016.31;5114507;28;20044;-76
2021/06/07 06:13:49;;;;;;;18.80;7.38;;;;;;;24.91;30.98;99013.56;5115887;28;20089;-75
2021/06/07 06:16:17;;;;;;;15.60;6.90;;;;;;;25.19;30.98;99021.34;5080908;28;20599;-75
2021/06/07 06:18:43;;;;;;;34.25;7.25;;;;;;;25.27;30.41;99001.88;5114281;28;20104;-77
2021/06/07 06:21:09;;;;;;;23.23;8.48;;;;;;;25.47;30.09;99011.81;5063814;28;20112;-74
2021/06/07 06:23:35;;;;;;;29.85;7.90;;;;;;;25.70;29.71;99011.13;5115281;28;20134;-74
2021/06/07 06:26:03;;;;;;;24.67;5.88;;;;;;;25.80;29.86;99008.69;5096837;28;20597;-76
2021/06/07 06:28:29;;;;;;;21.55;4.82;;;;;;;25.59;29.81;99009.97;5097512;28;20050;-74
2021/06/07 06:30:55;;;;;;;25.20;5.60;;;;;;;25.56;30.17;99005.78;5114313;28;20141;-75
2021/06/07 06:33:22;;;;;;;22.60;7.10;;;;;;;25.84;29.74;99004.44;5097188;28;20468;-76
2021/06/07 06:35:47;;;;;;;26.67;6.18;;;;;;;26.03;29.27;99010.75;5063498;28;20097;-75
2021/06/07 06:38:15;;;;;;;26.38;6.40;;;;;;;26.14;29.37;98996.25;5113899;28;20482;-75
2021/06/07 06:40:41;;;;;;;24.77;5.85;;;;;;;26.21;29.02;99002.47;5096973;28;20427;-76
2021/06/07 06:43:07;;;;;;;24.15;6.90;;;;;;;26.11;29.02;98996.72;5063716;28;20078;-75
2021/06/07 06:45:33;;;;;;;38.58;5.93;;;;;;;26.22;29.06;98998.66;5096845;28;20051;-75
2021/06/07 06:48:00;;;;;;;20.00;5.38;;;;;;;26.26;28.85;98996.31;5113660;28;20398;-75
2021/06/07 06:50:32;;;;;;;19.42;4.85;;;;;;;26.40;29.08;98989.53;5096930;28;20100;-75
2021/06/07 06:52:59;;;;;;;26.70;5.50;;;;;;;26.48;28.75;98992.00;5096511;28;20142;-75
2021/06/07 06:55:25;;;;;;;14.98;5.65;;;;;;;26.40;28.35;98989.53;5079315;28;20082;-75
2021/06/07 06:57:51;;;;;;;28.55;5.90;;;;;;;26.53;28.42;98989.38;5096192;28;20556;-75
2021/06/07 07:00:17;;;;;;;24.08;6.28;;;;;;;26.48;27.81;98988.38;5114626;27;20040;-76
2021/06/07 07:02:43;;;;;;;24.85;5.95;;;;;;;26.43;28.05;98988.25;5113083;28;20383;-76
2021/06/07 07:05:09;;;;;;;24.98;4.88;;;;;;;26.52;28.40;98982.22;5114068;28;20077;-74
2021/06/07 07:07:35;;;;;;;36.60;5.43;;;;;;;26.50;27.57;98978.03;5113068;28;20113;-76
2021/06/07 07:10:01;;;;;;;20.10;4.57;;;;;;;26.48;28.35;98982.91;5114296;28;20498;-75
2021/06/07 07:12:27;;;;;;;16.63;4.32;;;;;;;26.39;28.19;98977.75;5113929;28;20039;-74
2021/06/07 07:14:53;;;;;;;10.80;2.95;;;;;;;26.64;28.77;98979.50;5114142;28;20089;-74
2021/06/07 07:17:20;;;;;;;7.60;2.58;;;;;;;26.95;28.80;98980.25;5079499;28;20040;-75
2021/06/07 07:19:46;;;;;;;14.82;2.88;;;;;;;27.23;28.05;98974.91;5079403;28;20047;-75
2021/06/07 07:22:14;;;;;;;14.32;2.10;;;;;;;27.29;28.15;98971.19;5112489;28;20047;-75
2021/06/07 07:24:49;;;;;;;21.95;2.75;;;;;;;27.55;27.55;98980.00;5112919;28;20119;-76
2021/06/07 07:27:16;;;;;;;19.17;3.28;;;;;;;27.33;27.65;98971.56;5112708;28;20486;-77
2021/06/07 07:29:42;;;;;;;12.32;2.97;;;;;;;27.39;27.33;98970.59;5096073;28;20096;-76
2021/06/07 07:32:09;;;;;;;14.85;3.53;;;;;;;27.36;26.61;98969.16;5095601;28;20035;-76
2021/06/07 07:34:35;;;;;;;16.23;3.97;;;;;;;27.06;26.77;98973.94;5045668;28;20054;-74
2021/06/07 07:37:07;;;;;;;16.55;4.20;;;;;;;27.22;27.40;98965.00;5080843;28;20126;-76
2021/06/07 07:39:33;;;;;;;14.25;3.10;;;;;;;27.29;26.76;98960.22;5112840;28;20490;-76
2021/06/07 07:41:59;;;;;;;17.13;3.75;;;;;;;27.39;27.21;98964.28;5112586;28;20092;-75
2021/06/07 07:44:25;;;;;;;19.67;3.50;;;;;;;27.54;27.22;98953.63;5095686;28;20055;-73
2021/06/07 07:46:52;;;;;;;16.92;3.28;;;;;;;27.93;27.23;98959.38;5112271;28;20036;-75
2021/06/07 07:49:22;;;;;;;22.13;4.78;;;;;;;28.00;26.52;98955.41;5112198;28;20075;-75
2021/06/07 07:51:48;;;;;;;38.97;6.25;;;;;;;28.28;25.74;98950.94;5112085;28;20226;-75
2021/06/07 07:54:14;;;;;;;27.92;6.18;;;;;;;28.44;25.86;98954.84;5078656;28;20579;-75
2021/06/07 07:56:40;;;;;;;27.35;6.20;;;;;;;28.55;25.15;98953.94;5112135;28;20040;-75
2021/06/07 07:59:06;;;;;;;30.52;5.55;;;;;;;28.24;24.79;98942.38;5095425;28;20414;-74
2021/06/07 08:01:32;;;;;;;17.92;4.00;;;;;;;28.46;23.98;98942.50;5078442;28;20070;-75
2021/06/07 08:04:00;;;;;;;20.50;3.72;;;;;;;28.91;23.87;98954.50;5111898;28;20039;-75
2021/06/07 08:06:26;;;;;;;24.27;4.25;;;;;;;29.13;22.85;98947.19;5095292;28;20116;-75
2021/06/07 08:08:53;;;;;;;19.60;5.38;;;;;;;29.19;22.45;98948.94;5113277;28;20043;-75
2021/06/07 08:11:20;;;;;;;20.83;4.15;;;;;;;28.47;21.43;98943.34;5094952;28;20069;-74
2021/06/07 08:13:46;;;;;;;29.50;4.90;;;;;;;28.33;22.36;98945.56;5112114;28;20039;-76
2021/06/07 08:16:12;;;;;;;19.80;3.35;;;;;;;28.55;22.63;98952.03;5111978;28;20055;-78
2021/06/07 08:18:37;;;;;;;11.80;3.25;;;;;;;28.77;21.67;98943.88;5111856;28;20035;-76
2021/06/07 08:21:04;;;;;;;11.82;2.78;;;;;;;28.67;20.47;98932.69;5112250;28;20072;-74
2021/06/07 08:23:29;;;;;;;15.07;3.40;;;;;;;28.95;21.41;98939.16;5095240;28;20055;-76
2021/06/07 08:25:55;;;;;;;14.00;3.40;;;;;;;29.33;21.44;98932.84;5095020;28;20048;-76
2021/06/07 08:28:21;;;;;;;17.23;3.17;;;;;;;29.36;21.01;98937.03;5111932;28;20136;-75
2021/06/07 08:30:47;;;;;;;24.65;3.60;;;;;;;29.11;21.31;98926.47;5112138;28;20126;-75
2021/06/07 08:33:13;;;;;;;20.85;3.72;;;;;;;28.98;21.43;98935.94;5111496;28;20132;-75
2021/06/07 08:35:39;;;;;;;15.75;3.13;;;;;;;29.22;21.23;98929.13;5117181;28;20080;-75
2021/06/07 08:38:05;;;;;;;13.02;3.30;;;;;;;29.75;21.85;98938.66;5116384;28;20036;-75
2021/06/07 08:40:31;;;;;;;22.65;2.85;;;;;;;30.04;22.00;98937.59;5065778;28;20036;-76
2021/06/07 08:42:57;;;;;;;13.65;3.15;;;;;;;30.11;22.42;98941.78;5099276;28;20046;-75
2021/06/07 08:45:24;;;;;;;11.25;3.30;;;;;;;30.17;22.17;98940.81;5099208;28;20031;-77
2021/06/07 08:47:50;;;;;;;8.70;3.78;;;;;;;30.18;22.72;98931.44;5082115;28;20487;-76
2021/06/07 08:50:19;;;;;;;17.38;3.33;;;;;;;30.13;23.01;98934.13;5116059;28;20054;-76
2021/06/07 08:52:45;;;;;;;16.02;3.85;;;;;;;30.39;22.72;98932.47;5116707;28;20142;-76
2021/06/07 08:55:12;;;;;;;18.95;3.53;;;;;;;30.61;22.56;98929.59;5098391;28;20040;-75
2021/06/07 08:57:40;;;;;;;17.98;3.30;;;;;;;30.69;22.33;98931.88;5065409;28;20359;-74
2021/06/07 09:00:07;;;;;;;14.52;3.50;;;;;;;30.68;22.47;98937.66;5065232;28;20085;-75
2021/06/07 09:02:38;;;;;;;14.13;3.60;;;;;;;30.84;21.67;98939.47;5098975;28;20035;-75
2021/06/07 09:05:05;;;;;;;15.40;3.95;;;;;;;30.71;21.99;98931.63;5032150;28;20285;-76
2021/06/07 09:07:31;;;;;;;16.95;3.42;;;;;;;30.70;22.01;98930.78;5081870;28;20046;-75
2021/06/07 09:10:08;;;;;;;16.65;3.67;;;;;;;30.90;22.18;98921.00;5064557;28;20047;-74
2021/06/07 09:12:35;;;;;;;12.83;3.60;;;;;;;30.99;21.28;98924.94;5081718;28;20440;-76
2021/06/07 09:15:01;;;;;;;13.65;3.75;;;;;;;31.08;21.33;98917.81;5098730;28;20035;-76
2021/06/07 09:17:27;;;;;;;9.45;2.80;;;;;;;30.87;19.71;98924.31;5116692;28;20047;-76
2021/06/07 09:20:14;;;;;;;11.60;3.08;;;;;;;30.88;19.41;98926.81;5081802;28;20040;-76
2021/06/07 09:23:00;;;;;;;14.40;2.50;;;;;;;30.70;19.54;98921.69;5065354;28;20258;-75
2021/06/07 09:25:29;;;;;;;8.82;2.20;;;;;;;30.53;19.34;98921.81;5064880;28;20089;-77
2021/06/07 09:28:06;;;;;;;8.00;2.90;;;;;;;30.52;18.98;98931.19;5098297;28;20043;-76
2021/06/07 09:30:41;;;;;;;10.70;3.03;;;;;;;30.48;19.81;98930.88;5064626;28;20525;-76
2021/06/07 09:33:22;;;;;;;6.72;2.75;;;;;;;30.81;19.59;98928.13;5081285;28;20047;-76
2021/06/07 09:36:09;;;;;;;8.85;2.70;;;;;;;31.11;19.27;98928.34;5098701;28;20044;-75
2021/06/07 09:39:08;;;;;;;10.20;2.77;;;;;;;31.27;19.02;98925.66;5081566;28;20498;-76
2021/06/07 09:41:43;;;;;;;10.20;2.20;;;;;;;31.59;18.59;98925.53;5064085;28;20053;-76
2021/06/07 09:44:09;;;;;;;7.10;2.47;;;;;;;32.22;18.57;98919.94;5081393;28;20054;-76
2021/06/07 09:46:35;;;;;;;9.52;2.42;;;;;;;32.04;18.17;98919.34;5097649;28;20047;-76
2021/06/07 09:49:10;;;;;;;12.77;2.25;;;;;;;31.71;18.12;98908.72;5080930;28;20047;-75
2021/06/07 09:51:37;;;;;;;9.90;2.13;;;;;;;31.87;18.82;98907.72;5097266;28;20040;-76
2021/06/07 09:54:03;;;;;;;6.32;2.05;;;;;;;32.52;18.52;98906.16;5063964;28;20538;-75
2021/06/07 09:56:29;;;;;;;11.25;2.22;;;;;;;32.66;18.58;98908.38;5081374;28;20529;-75
2021/06/07 09:58:55;;;;;;;10.23;2.40;;;;;;;32.59;18.53;98912.25;5080936;28;20043;-76
2021/06/07 10:01:30;;;;;;;9.13;2.60;;;;;;;33.02;18.63;98901.69;5080666;28;20127;-75
2021/06/07 10:03:57;;;;;;;5.70;1.77;;;;;;;33.34;17.84;98906.88;5080461;28;20097;-75
2021/06/07 10:06:26;;;;;;;7.78;4.40;;;;;;;33.43;18.15;98911.81;5097048;28;20040;-75
2021/06/07 10:08:57;;;;;;;8.13;2.03;;;;;;;33.84;17.79;98896.66;5115274;28;20039;-76
2021/06/07 10:11:29;;;;;;;10.57;2.00;;;;;;;34.34;17.05;98905.00;5064324;28;20046;-77
2021/06/07 10:14:13;;;;;;;6.45;1.95;;;;;;;33.95;16.77;98908.53;5097563;28;20044;-76
2021/06/07 10:17:03;;;;;;;5.05;1.90;;;;;;;34.26;17.20;98909.19;5080853;28;20518;-76
2021/06/07 10:19:46;;;;;;;9.77;2.20;;;;;;;34.33;16.59;98900.53;5064830;28;20047;-75
2021/06/07 10:22:12;;;;;;;9.88;2.05;;;;;;;34.65;16.98;98899.19;5097549;28;20047;-76
2021/06/07 10:24:39;;;;;;;5.53;1.70;;;;;;;34.78;16.40;98892.94;5115299;28;20048;-76
2021/06/07 10:27:05;;;;;;;7.20;2.05;;;;;;;35.16;16.84;98898.69;5115280;28;20048;-75
2021/06/07 10:29:39;;;;;;;9.75;2.17;;;;;;;35.09;16.58;98910.16;5063844;28;20044;-76
2021/06/07 10:32:24;;;;;;;6.68;1.90;;;;;;;35.12;17.00;98904.00;5080967;28;20078;-77
2021/06/07 10:34:56;;;;;;;6.35;1.98;;;;;;;35.83;16.16;98896.75;5064870;28;20437;-76
2021/06/07 10:37:24;;;;;;;2.80;1.55;;;;;;;36.35;15.77;98892.09;5080401;28;20050;-75
2021/06/07 10:39:50;;;;;;;4.20;1.88;;;;;;;36.49;15.70;98899.72;5080497;28;20101;-77
2021/06/07 10:42:18;;;;;;;9.48;1.63;;;;;;;36.03;15.59;98894.84;5047369;28;20047;-78
2021/06/07 10:44:54;;;;;;;6.50;1.75;;;;;;;35.71;16.03;98893.59;5098503;28;20039;-79
2021/06/07 10:47:23;;;;;;;3.03;1.40;;;;;;;36.40;16.09;98896.75;5064184;28;20460;-77
2021/06/07 10:49:55;;;;;;;4.90;1.35;;;;;;;37.06;15.98;98900.41;5079654;28;20055;-75
2021/06/07 10:52:24;;;;;;;5.47;1.60;;;;;;;37.41;15.69;98885.75;5071799;28;20052;-76
2021/06/07 10:55:04;;;;;;;5.50;1.67;;;;;;;37.79;15.25;98874.34;5060200;28;20036;-75
2021/06/07 10:57:34;;;;;;;8.15;1.63;;;;;;;38.06;15.28;98883.78;5043775;28;20032;-76
2021/06/07 11:00:06;;;;;;;5.30;1.50;;;;;;;38.19;15.31;98879.31;5060115;28;20044;-75
2021/06/07 11:02:36;;;;;;;5.38;1.73;;;;;;;38.54;15.42;98867.25;5060049;28;20367;-75
2021/06/07 11:05:08;;;;;;;9.20;2.55;;;;;;;39.02;15.52;98871.34;5042891;28;20149;-76
2021/06/07 11:07:35;;;;;;;8.68;1.90;;;;;;;39.17;15.25;98868.09;5076240;28;20048;-76
2021/06/07 11:10:20;;;;;;;6.93;1.83;;;;;;;38.74;14.66;98867.88;5042664;28;20202;-75
2021/06/07 11:12:47;;;;;;;7.32;1.90;;;;;;;38.23;14.95;98863.59;5042750;28;20126;-75
2021/06/07 11:15:54;;;;;;;5.47;1.87;;;;;;;38.32;14.83;98868.06;5094026;28;20036;-75
2021/06/07 11:18:25;;;;;;;5.30;1.48;;;;;;;38.65;14.73;98859.44;5059181;28;20131;-75
2021/06/07 11:20:56;;;;;;;11.35;1.58;;;;;;;38.54;14.80;98860.84;5075980;28;20052;-76
2021/06/07 11:23:29;;;;;;;5.97;1.67;;;;;;;38.96;14.40;98853.06;5059756;28;20059;-76
2021/06/07 11:25:56;;;;;;;9.18;1.45;;;;;;;38.94;14.66;98860.94;5075612;28;20044;-75
2021/06/07 11:28:40;;;;;;;7.57;1.35;;;;;;;38.22;14.37;98862.75;5093587;28;20040;-75